createdAt,value
2023-02-15T00:00:05.826Z,5.56
2023-02-15T00:02:32.686Z,5.55
2023-02-15T00:04:59.332Z,5.55
2023-02-15T00:07:26.006Z,5.52
2023-02-15T00:09:52.667Z,5.38
2023-02-15T00:12:19.321Z,5.36
2023-02-15T00:14:45.980Z,5.38
2023-02-15T00:17:12.631Z,5.26
2023-02-15T00:19:39.315Z,5.25
2023-02-15T00:22:05.974Z,5.23
2023-02-15T00:24:32.646Z,5.27
2023-02-15T00:26:59.397Z,5.32
2023-02-15T00:29:26.063Z,5.39
2023-02-15T00:31:52.759Z,5.42
2023-02-15T00:34:21.789Z,5.45
2023-02-15T00:36:48.476Z,5.40
2023-02-15T00:39:15.510Z,5.33
2023-02-15T00:41:42.179Z,5.34
2023-02-15T00:44:08.944Z,5.34
2023-02-15T00:46:35.597Z,5.31
2023-02-15T00:49:02.270Z,5.29
2023-02-15T00:51:28.988Z,5.27
2023-02-15T00:53:55.650Z,5.25
2023-02-15T00:56:22.377Z,5.19
2023-02-15T00:58:49.036Z,5.24
2023-02-15T01:01:18.563Z,5.31
2023-02-15T01:03:45.310Z,5.29
2023-02-15T01:06:12.018Z,5.27
2023-02-15T01:08:38.736Z,5.25
2023-02-15T01:11:09.932Z,5.26
2023-02-15T01:13:36.613Z,5.35
2023-02-15T01:16:03.701Z,5.31
2023-02-15T01:18:30.642Z,5.34
2023-02-15T01:20:57.505Z,5.29
2023-02-15T01:23:24.132Z,5.28
2023-02-15T01:25:50.766Z,5.30
2023-02-15T01:28:17.402Z,5.31
2023-02-15T01:30:44.135Z,5.32
2023-02-15T01:33:11.190Z,5.30
2023-02-15T01:35:37.856Z,5.30
2023-02-15T01:38:04.491Z,5.24
2023-02-15T01:40:31.122Z,5.16
2023-02-15T01:42:57.771Z,5.17
2023-02-15T01:45:24.285Z,5.15
2023-02-15T01:48:03.210Z,5.11
2023-02-15T01:50:47.132Z,5.09
2023-02-15T01:53:37.690Z,5.01
2023-02-15T01:56:21.762Z,4.99
2023-02-15T01:58:48.400Z,4.95
2023-02-15T02:01:15.043Z,4.97
2023-02-15T02:03:47.301Z,4.94
2023-02-15T02:06:13.941Z,5.03
2023-02-15T02:08:42.094Z,5.11
2023-02-15T02:11:12.686Z,5.11
2023-02-15T02:13:40.735Z,5.07
2023-02-15T02:16:14.006Z,4.98
2023-02-15T02:19:11.297Z,4.99
2023-02-15T02:22:15.421Z,4.98
2023-02-15T02:24:41.921Z,4.98
2023-02-15T02:27:30.906Z,4.99
2023-02-15T02:30:17.728Z,5.01
2023-02-15T02:33:09.416Z,5.01
2023-02-15T02:35:50.095Z,5.01
2023-02-15T02:38:39.699Z,4.97
2023-02-15T02:41:30.103Z,4.89
2023-02-15T02:44:11.542Z,4.84
2023-02-15T02:46:39.861Z,4.77
2023-02-15T02:49:06.504Z,4.72
2023-02-15T02:51:33.126Z,4.65
2023-02-15T02:54:01.106Z,4.57
2023-02-15T02:56:41.439Z,4.55
2023-02-15T02:59:13.975Z,4.49
2023-02-15T03:01:52.946Z,4.49
2023-02-15T03:04:25.336Z,4.44
2023-02-15T03:07:05.409Z,4.42
2023-02-15T03:09:34.968Z,4.39
2023-02-15T03:12:01.990Z,4.37
2023-02-15T03:14:28.617Z,4.39
2023-02-15T03:16:55.260Z,4.37
2023-02-15T03:19:24.776Z,4.42
2023-02-15T03:21:52.842Z,4.39
2023-02-15T03:24:22.241Z,4.37
2023-02-15T03:26:50.843Z,4.33
2023-02-15T03:29:17.775Z,4.33
2023-02-15T03:31:45.827Z,4.33
2023-02-15T03:34:13.472Z,4.35
2023-02-15T03:36:51.396Z,4.38
2023-02-15T03:39:31.139Z,4.38
2023-02-15T03:42:14.034Z,4.38
2023-02-15T03:44:46.995Z,4.38
2023-02-15T03:47:16.211Z,4.37
2023-02-15T03:49:45.424Z,4.29
2023-02-15T03:52:12.109Z,4.27
2023-02-15T03:54:38.741Z,4.30
2023-02-15T03:57:05.561Z,4.29
2023-02-15T03:59:32.195Z,4.27
2023-02-15T04:02:21.964Z,4.24
2023-02-15T04:04:48.823Z,4.21
2023-02-15T04:07:15.458Z,4.13
2023-02-15T04:09:42.098Z,4.20
2023-02-15T04:12:08.720Z,4.22
2023-02-15T04:14:35.357Z,4.16
2023-02-15T04:17:02.010Z,4.11
2023-02-15T04:19:28.666Z,4.08
2023-02-15T04:21:55.316Z,4.07
2023-02-15T04:24:21.966Z,4.07
2023-02-15T04:26:48.620Z,4.05
2023-02-15T04:29:18.180Z,4.03
2023-02-15T04:31:44.908Z,4.14
2023-02-15T04:34:11.583Z,4.12
2023-02-15T04:36:39.110Z,4.13
2023-02-15T04:39:05.888Z,4.16
2023-02-15T04:41:32.739Z,4.17
2023-02-15T04:43:59.421Z,4.13
2023-02-15T04:46:26.058Z,4.13
2023-02-15T04:48:52.714Z,4.10
2023-02-15T04:51:19.464Z,4.13
2023-02-15T04:53:46.153Z,4.10
2023-02-15T04:56:12.886Z,4.18
2023-02-15T04:58:39.518Z,4.21
2023-02-15T05:01:06.210Z,4.16
2023-02-15T05:03:32.882Z,4.07
2023-02-15T05:05:59.760Z,3.93
2023-02-15T05:08:26.482Z,3.87
2023-02-15T05:10:53.137Z,3.88
2023-02-15T05:13:19.893Z,3.89
2023-02-15T05:15:50.254Z,3.98
2023-02-15T05:18:17.312Z,4.10
2023-02-15T05:20:43.997Z,4.13
2023-02-15T05:23:10.679Z,4.26
2023-02-15T05:25:37.380Z,4.25
2023-02-15T05:28:05.306Z,4.21
2023-02-15T05:30:32.319Z,4.24
2023-02-15T05:32:59.083Z,4.32
2023-02-15T05:35:25.734Z,4.30
2023-02-15T05:37:52.388Z,4.33
2023-02-15T05:40:19.086Z,4.31
2023-02-15T05:42:45.773Z,4.31
2023-02-15T05:45:12.438Z,4.32
2023-02-15T05:47:39.096Z,4.32
2023-02-15T05:50:06.343Z,4.32
2023-02-15T05:52:32.986Z,4.32
2023-02-15T05:54:59.621Z,4.35
2023-02-15T05:57:26.270Z,4.37
2023-02-15T05:59:52.906Z,4.35
2023-02-15T06:02:19.553Z,4.33
2023-02-15T06:04:46.223Z,4.31
2023-02-15T06:07:13.329Z,4.31
2023-02-15T06:09:39.999Z,4.33
2023-02-15T06:12:06.673Z,4.37
2023-02-15T06:14:33.316Z,4.37
2023-02-15T06:17:00.070Z,4.39
2023-02-15T06:19:26.741Z,4.33
2023-02-15T06:21:53.361Z,4.30
2023-02-15T06:24:20.024Z,4.23
2023-02-15T06:26:46.666Z,4.24
2023-02-15T06:29:13.358Z,4.22
2023-02-15T06:31:40.197Z,4.18
2023-02-15T06:34:07.010Z,4.02
2023-02-15T06:36:33.717Z,3.98
2023-02-15T06:39:00.386Z,3.89
2023-02-15T06:41:27.026Z,3.84
2023-02-15T06:43:53.668Z,3.84
2023-02-15T06:46:20.333Z,3.79
2023-02-15T06:48:47.202Z,3.76
2023-02-15T06:51:13.844Z,3.79
2023-02-15T06:53:40.520Z,3.76
2023-02-15T06:56:07.828Z,3.77
2023-02-15T06:58:34.476Z,3.81
2023-02-15T07:01:01.154Z,3.83
2023-02-15T07:03:27.796Z,3.84
2023-02-15T07:05:57.933Z,3.81
2023-02-15T07:08:25.198Z,3.79
2023-02-15T07:10:52.213Z,3.85
2023-02-15T07:13:18.947Z,3.70
2023-02-15T07:15:46.272Z,3.69
2023-02-15T07:18:12.929Z,3.61
2023-02-15T07:20:39.563Z,3.65
2023-02-15T07:23:06.301Z,3.71
2023-02-15T07:25:32.935Z,3.71
2023-02-15T07:28:00.143Z,3.66
2023-02-15T07:30:26.783Z,3.72
2023-02-15T07:32:57.408Z,3.84
2023-02-15T07:35:24.053Z,3.71
2023-02-15T07:37:50.669Z,3.99
2023-02-15T07:40:17.314Z,4.04
2023-02-15T07:42:43.962Z,4.12
2023-02-15T07:45:10.608Z,4.29
2023-02-15T07:47:37.263Z,4.42
2023-02-15T07:50:03.941Z,4.56
2023-02-15T07:52:30.616Z,4.81
2023-02-15T07:54:57.259Z,4.99
2023-02-15T07:57:23.915Z,5.13
2023-02-15T07:59:50.574Z,5.27
2023-02-15T08:02:18.484Z,5.42
2023-02-15T08:04:45.172Z,5.58
2023-02-15T08:07:11.833Z,5.70
2023-02-15T08:09:38.484Z,5.79
2023-02-15T08:12:05.136Z,5.95
2023-02-15T08:14:31.790Z,6.10
2023-02-15T08:17:00.192Z,6.33
2023-02-15T08:19:28.120Z,6.52
2023-02-15T08:22:05.025Z,6.81
2023-02-15T08:24:36.699Z,7.06
2023-02-15T08:27:05.754Z,7.24
2023-02-15T08:29:32.951Z,7.40
2023-02-15T08:32:07.306Z,7.62
2023-02-15T08:34:35.833Z,8.07
2023-02-15T08:37:02.859Z,8.64
2023-02-15T08:39:29.494Z,9.39
2023-02-15T08:41:56.179Z,11.21
2023-02-15T08:44:22.837Z,13.65
2023-02-15T08:46:49.697Z,15.19
2023-02-15T08:49:20.368Z,16.63
2023-02-15T08:51:47.234Z,17.87
2023-02-15T08:54:15.895Z,18.50
2023-02-15T08:56:43.231Z,19.20
2023-02-15T08:59:20.628Z,19.91
2023-02-15T09:01:47.605Z,20.72
2023-02-15T09:04:14.273Z,21.41
2023-02-15T09:06:41.536Z,22.13
2023-02-15T09:09:08.226Z,22.66
2023-02-15T09:11:36.505Z,23.06
2023-02-15T09:14:05.325Z,23.54
2023-02-15T09:16:33.754Z,23.63
2023-02-15T09:19:00.417Z,23.89
2023-02-15T09:21:27.060Z,23.98
2023-02-15T09:23:57.034Z,23.90
2023-02-15T09:26:24.153Z,23.93
2023-02-15T09:28:53.214Z,23.85
2023-02-15T09:31:21.243Z,23.80
2023-02-15T09:33:48.563Z,23.73
2023-02-15T09:36:26.086Z,23.76
2023-02-15T09:39:13.639Z,23.95
2023-02-15T09:41:40.134Z,24.00
2023-02-15T09:44:18.155Z,23.88
2023-02-15T09:47:14.007Z,23.10
2023-02-15T09:49:50.450Z,21.31
2023-02-15T09:52:44.830Z,21.10
2023-02-15T09:55:23.732Z,19.73
2023-02-15T09:58:19.650Z,19.02
2023-02-15T10:00:55.760Z,18.70
2023-02-15T10:03:31.857Z,17.77
2023-02-15T10:06:24.754Z,17.13
2023-02-15T10:09:00.444Z,16.37
2023-02-15T10:11:33.077Z,16.02
2023-02-15T10:14:10.982Z,15.56
2023-02-15T10:17:04.259Z,15.53
2023-02-15T10:19:43.377Z,15.35
2023-02-15T10:22:14.249Z,15.38
2023-02-15T10:24:48.807Z,15.26
2023-02-15T10:27:21.995Z,15.17
2023-02-15T10:30:11.068Z,14.87
2023-02-15T10:33:10.050Z,14.82
2023-02-15T10:36:12.138Z,14.76
2023-02-15T10:38:56.842Z,14.33
2023-02-15T10:41:30.397Z,14.24
2023-02-15T10:44:09.332Z,14.05
2023-02-15T10:47:27.536Z,13.83
2023-02-15T10:50:07.492Z,13.99
2023-02-15T10:52:52.600Z,13.93
2023-02-15T10:55:44.230Z,13.84
2023-02-15T10:58:45.695Z,13.77
2023-02-15T11:01:20.026Z,13.52
2023-02-15T11:04:06.642Z,13.43
2023-02-15T11:06:33.307Z,13.52
2023-02-15T11:09:05.029Z,13.44
2023-02-15T11:11:41.099Z,13.41
2023-02-15T11:14:16.642Z,13.14
2023-02-15T11:16:47.898Z,12.97
2023-02-15T11:19:35.160Z,12.85
2023-02-15T11:22:05.770Z,12.81
2023-02-15T11:24:41.346Z,12.91
2023-02-15T11:27:20.001Z,12.71
2023-02-15T11:30:07.251Z,12.71
2023-02-15T11:32:33.783Z,12.62
2023-02-15T11:35:12.346Z,12.58
2023-02-15T11:38:09.788Z,12.58
2023-02-15T11:40:40.539Z,12.50
2023-02-15T11:43:33.442Z,12.45
2023-02-15T11:46:00.121Z,12.45
2023-02-15T11:48:26.775Z,12.49
2023-02-15T11:50:53.406Z,12.40
2023-02-15T11:53:21.952Z,12.32
2023-02-15T11:55:49.432Z,12.32
2023-02-15T11:58:53.927Z,12.28
2023-02-15T12:01:44.272Z,12.21
2023-02-15T12:04:31.295Z,12.13
2023-02-15T12:07:10.453Z,12.04
2023-02-15T12:09:50.195Z,12.00
2023-02-15T12:12:26.813Z,11.92
2023-02-15T12:14:57.643Z,11.73
2023-02-15T12:17:28.753Z,11.74
2023-02-15T12:20:03.416Z,11.73
2023-02-15T12:22:35.244Z,11.73
2023-02-15T12:25:03.674Z,11.75
2023-02-15T12:27:34.257Z,11.72
2023-02-15T12:30:20.268Z,11.79
2023-02-15T12:32:58.435Z,11.86
2023-02-15T12:35:32.598Z,11.63
2023-02-15T12:38:11.312Z,11.60
2023-02-15T12:40:38.101Z,11.68
2023-02-15T12:43:08.973Z,11.59
2023-02-15T12:45:37.325Z,11.73
2023-02-15T12:48:10.937Z,11.66
2023-02-15T12:50:37.634Z,11.69
2023-02-15T12:53:21.466Z,11.72
2023-02-15T12:56:14.531Z,11.76
2023-02-15T12:58:41.433Z,11.54
2023-02-15T13:01:19.185Z,11.64
2023-02-15T13:03:59.335Z,11.65
2023-02-15T13:06:27.039Z,11.65
2023-02-15T13:08:54.877Z,11.60
2023-02-15T13:11:31.287Z,11.60
2023-02-15T13:14:00.495Z,11.62
2023-02-15T13:16:33.018Z,11.36
2023-02-15T13:19:00.502Z,11.46
2023-02-15T13:21:29.114Z,11.51
2023-02-15T13:24:00.249Z,11.56
2023-02-15T13:26:27.661Z,11.62
2023-02-15T13:28:56.464Z,11.63
2023-02-15T13:31:25.221Z,11.56
2023-02-15T13:33:56.186Z,11.62
2023-02-15T13:36:32.040Z,11.65
2023-02-15T13:39:20.408Z,11.68
2023-02-15T13:41:54.292Z,11.71
2023-02-15T13:44:42.374Z,11.75
2023-02-15T13:47:28.740Z,11.78
2023-02-15T13:50:08.757Z,11.79
2023-02-15T13:52:40.259Z,11.84
2023-02-15T13:55:26.335Z,11.89
2023-02-15T13:58:20.551Z,11.92
2023-02-15T14:00:49.396Z,11.98
2023-02-15T14:03:20.260Z,12.06
2023-02-15T14:05:56.519Z,12.06
2023-02-15T14:08:32.750Z,12.19
2023-02-15T14:11:36.895Z,12.20
2023-02-15T14:14:24.300Z,12.20
2023-02-15T14:17:12.853Z,12.35
2023-02-15T14:20:02.052Z,12.36
2023-02-15T14:22:34.770Z,12.46
2023-02-15T14:25:25.816Z,12.42
2023-02-15T14:28:04.373Z,12.45
2023-02-15T14:30:35.890Z,12.56
2023-02-15T14:33:09.352Z,12.50
2023-02-15T14:35:36.106Z,12.38
2023-02-15T14:38:20.310Z,12.49
2023-02-15T14:40:55.463Z,12.66
2023-02-15T14:43:32.337Z,12.71
2023-02-15T14:46:09.619Z,12.79
2023-02-15T14:48:42.403Z,12.77
2023-02-15T14:51:09.355Z,12.80
2023-02-15T14:53:37.436Z,12.81
2023-02-15T14:56:21.531Z,12.75
2023-02-15T14:58:56.809Z,12.70
2023-02-15T15:01:28.537Z,12.61
2023-02-15T15:03:56.933Z,12.49
2023-02-15T15:06:42.858Z,12.49
2023-02-15T15:09:23.543Z,12.38
2023-02-15T15:11:52.908Z,12.31
2023-02-15T15:14:34.586Z,12.26
2023-02-15T15:17:02.096Z,12.22
2023-02-15T15:19:54.025Z,12.12
2023-02-15T15:22:21.417Z,12.08
2023-02-15T15:24:49.570Z,12.02
2023-02-15T15:27:37.973Z,11.93
2023-02-15T15:30:24.814Z,11.90
2023-02-15T15:32:57.213Z,11.88
2023-02-15T15:35:54.453Z,11.86
2023-02-15T15:38:58.495Z,11.98
2023-02-15T15:41:28.012Z,11.99
2023-02-15T15:44:21.307Z,11.94
2023-02-15T15:47:06.558Z,11.86
2023-02-15T15:49:33.784Z,11.77
2023-02-15T15:52:04.563Z,11.72
2023-02-15T15:54:31.246Z,11.67
2023-02-15T15:57:00.179Z,11.64
2023-02-15T15:59:28.991Z,11.55
2023-02-15T16:01:55.689Z,11.51
2023-02-15T16:04:29.977Z,11.41
2023-02-15T16:07:06.280Z,11.36
2023-02-15T16:09:32.898Z,11.28
2023-02-15T16:11:59.781Z,11.20
2023-02-15T16:14:39.918Z,11.09
2023-02-15T16:17:08.135Z,10.99
2023-02-15T16:19:40.051Z,10.89
2023-02-15T16:22:11.197Z,10.82
2023-02-15T16:25:00.697Z,10.78
2023-02-15T16:27:40.046Z,10.79
2023-02-15T16:30:29.801Z,10.79
2023-02-15T16:33:04.252Z,10.78
2023-02-15T16:35:30.907Z,10.69
2023-02-15T16:37:57.540Z,10.62
2023-02-15T16:40:24.153Z,10.53
2023-02-15T16:42:57.938Z,10.47
2023-02-15T16:45:25.374Z,10.38
2023-02-15T16:47:54.372Z,10.35
2023-02-15T16:50:23.220Z,10.28
2023-02-15T16:52:49.913Z,10.19
2023-02-15T16:55:29.777Z,10.15
2023-02-15T16:57:58.082Z,10.16
2023-02-15T17:00:26.717Z,10.05
2023-02-15T17:03:03.980Z,9.96
2023-02-15T17:05:32.179Z,9.99
2023-02-15T17:08:18.582Z,9.99
2023-02-15T17:10:47.083Z,10.00
2023-02-15T17:13:17.387Z,9.80
2023-02-15T17:16:21.233Z,9.69
2023-02-15T17:18:47.904Z,9.65
2023-02-15T17:21:18.054Z,9.65
2023-02-15T17:23:49.322Z,9.50
2023-02-15T17:26:16.884Z,9.52
2023-02-15T17:28:48.923Z,9.49
2023-02-15T17:31:16.316Z,9.40
2023-02-15T17:33:43.301Z,9.37
2023-02-15T17:36:19.621Z,9.30
2023-02-15T17:38:58.215Z,9.25
2023-02-15T17:41:25.464Z,9.21
2023-02-15T17:43:52.120Z,9.28
2023-02-15T17:46:18.792Z,9.25
2023-02-15T17:48:47.286Z,9.23
2023-02-15T17:51:14.290Z,9.26
2023-02-15T17:53:41.410Z,9.26
2023-02-15T17:56:08.130Z,9.20
2023-02-15T17:58:34.859Z,9.19
2023-02-15T18:01:01.836Z,9.07
2023-02-15T18:03:55.205Z,9.06
2023-02-15T18:06:21.851Z,9.08
2023-02-15T18:08:48.526Z,9.12
2023-02-15T18:11:15.195Z,9.06
2023-02-15T18:13:41.837Z,9.11
2023-02-15T18:16:21.050Z,9.04
2023-02-15T18:18:47.719Z,9.08
2023-02-15T18:21:15.378Z,9.16
2023-02-15T18:23:42.013Z,9.15
2023-02-15T18:26:10.836Z,9.12
2023-02-15T18:28:37.485Z,9.13
2023-02-15T18:31:04.449Z,9.13
2023-02-15T18:33:35.491Z,9.14
2023-02-15T18:36:03.047Z,9.10
2023-02-15T18:38:30.130Z,9.05
2023-02-15T18:40:56.781Z,9.08
2023-02-15T18:43:23.405Z,9.06
2023-02-15T18:45:50.106Z,8.94
2023-02-15T18:48:16.760Z,8.99
2023-02-15T18:50:43.389Z,8.89
2023-02-15T18:53:20.563Z,8.80
2023-02-15T18:55:47.227Z,8.82
2023-02-15T18:58:16.099Z,8.71
2023-02-15T19:00:42.728Z,8.50
2023-02-15T19:03:09.497Z,8.55
2023-02-15T19:05:36.186Z,8.49
2023-02-15T19:08:02.837Z,8.50
2023-02-15T19:10:31.419Z,8.47
2023-02-15T19:12:58.182Z,8.48
2023-02-15T19:15:26.694Z,8.43
2023-02-15T19:17:53.975Z,8.39
2023-02-15T19:20:22.524Z,8.41
2023-02-15T19:22:49.779Z,8.30
2023-02-15T19:25:24.011Z,8.23
2023-02-15T19:27:50.840Z,8.24
2023-02-15T19:30:19.010Z,8.26
2023-02-15T19:32:45.736Z,8.20
2023-02-15T19:35:19.322Z,8.18
2023-02-15T19:37:47.192Z,8.08
2023-02-15T19:40:27.367Z,8.10
2023-02-15T19:42:54.022Z,8.06
2023-02-15T19:45:22.393Z,8.07
2023-02-15T19:47:49.037Z,8.02
2023-02-15T19:50:16.562Z,7.93
2023-02-15T19:52:43.213Z,7.89
2023-02-15T19:55:16.285Z,7.94
2023-02-15T19:57:42.950Z,7.93
2023-02-15T20:00:23.253Z,7.82
2023-02-15T20:02:49.902Z,7.77
2023-02-15T20:05:16.546Z,7.82
2023-02-15T20:07:44.392Z,7.88
2023-02-15T20:10:15.569Z,7.94
2023-02-15T20:12:42.729Z,7.95
2023-02-15T20:15:19.586Z,7.84
2023-02-15T20:17:46.225Z,7.86
2023-02-15T20:20:13.286Z,7.87
2023-02-15T20:22:40.446Z,7.85
2023-02-15T20:25:11.290Z,7.86
2023-02-15T20:27:37.937Z,7.83
2023-02-15T20:30:06.797Z,7.73
2023-02-15T20:32:33.570Z,7.69
2023-02-15T20:35:00.240Z,7.69
2023-02-15T20:37:27.474Z,7.66
2023-02-15T20:39:54.300Z,7.70
2023-02-15T20:42:20.943Z,7.74
2023-02-15T20:44:47.606Z,7.66
2023-02-15T20:47:14.329Z,7.65
2023-02-15T20:49:41.020Z,7.58
2023-02-15T20:52:17.600Z,7.58
2023-02-15T20:54:44.265Z,7.56
2023-02-15T20:57:13.590Z,7.58
2023-02-15T20:59:40.290Z,7.52
2023-02-15T21:02:25.083Z,7.56
2023-02-15T21:04:54.476Z,7.57
2023-02-15T21:07:22.664Z,7.57
2023-02-15T21:09:50.270Z,7.60
2023-02-15T21:12:19.907Z,7.63
2023-02-15T21:14:47.510Z,7.66
2023-02-15T21:17:17.184Z,7.76
2023-02-15T21:19:44.877Z,7.63
2023-02-15T21:22:17.364Z,7.63
2023-02-15T21:24:48.802Z,7.54
2023-02-15T21:27:19.365Z,7.53
2023-02-15T21:29:47.247Z,7.59
2023-02-15T21:32:15.975Z,7.65
2023-02-15T21:34:44.417Z,7.61
2023-02-15T21:37:25.441Z,7.58
2023-02-15T21:39:52.702Z,7.51
2023-02-15T21:42:19.840Z,7.51
2023-02-15T21:44:46.916Z,7.57
2023-02-15T21:47:23.514Z,7.54
2023-02-15T21:49:52.180Z,7.57
2023-02-15T21:52:22.537Z,7.56
2023-02-15T21:54:50.353Z,7.55
2023-02-15T21:57:18.713Z,7.56
2023-02-15T21:59:46.534Z,7.46
2023-02-15T22:02:29.181Z,7.59
2023-02-15T22:04:56.760Z,7.39
2023-02-15T22:07:25.383Z,7.34
2023-02-15T22:09:52.987Z,7.40
2023-02-15T22:12:20.582Z,7.46
2023-02-15T22:14:50.927Z,7.39
2023-02-15T22:17:19.549Z,7.30
2023-02-15T22:19:47.454Z,7.24
2023-02-15T22:22:15.025Z,7.26
2023-02-15T22:24:42.669Z,7.40
2023-02-15T22:27:22.497Z,7.45
2023-02-15T22:29:49.548Z,7.52
2023-02-15T22:32:21.689Z,7.29
2023-02-15T22:34:49.102Z,7.08
2023-02-15T22:37:16.714Z,7.08
2023-02-15T22:39:44.337Z,6.97
2023-02-15T22:42:38.020Z,6.88
2023-02-15T22:45:07.913Z,6.93
2023-02-15T22:47:34.944Z,6.85
2023-02-15T22:50:02.840Z,6.94
2023-02-15T22:52:30.477Z,6.98
2023-02-15T22:54:58.088Z,7.11
2023-02-15T22:57:31.669Z,7.15
2023-02-15T22:59:59.251Z,7.03
2023-02-15T23:02:27.862Z,7.01
2023-02-15T23:04:55.466Z,7.02
2023-02-15T23:07:23.080Z,7.01
2023-02-15T23:09:50.672Z,7.01
2023-02-15T23:12:23.253Z,7.00
2023-02-15T23:14:50.842Z,6.97
2023-02-15T23:17:18.468Z,6.97
2023-02-15T23:19:46.026Z,6.94
2023-02-15T23:22:15.640Z,7.00
2023-02-15T23:24:44.239Z,7.01
2023-02-15T23:27:17.862Z,6.91
2023-02-15T23:29:45.467Z,6.81
2023-02-15T23:32:13.220Z,6.62
2023-02-15T23:34:40.660Z,6.72
2023-02-15T23:37:12.292Z,6.55
2023-02-15T23:39:39.901Z,6.56
2023-02-15T23:42:21.557Z,6.73
2023-02-15T23:44:50.130Z,6.87
2023-02-15T23:47:24.619Z,6.79
2023-02-15T23:49:52.361Z,6.74
2023-02-15T23:52:19.957Z,6.78
2023-02-15T23:54:46.993Z,6.82
2023-02-15T23:57:13.706Z,6.74
2023-02-15T23:59:40.749Z,6.76
